Time;durP1;ratioP1;P1;durP2;ratioP2;P2;SDS_P1;SDS_P2;PMS_P1;PMS_P2;Temp;Humidity;BMP_temperature;BMP_pressure;BME280_temperature;BME280_humidity;BME280_pressure;Samples;Min_cycle;Max_cycle;Signal;HPM_P1;HPM_P2
2023/10/21 00:01:47;;;;;;;8.60;3.63;;;;;;;;;;5060734;28;20403;-58
2023/10/21 00:04:12;;;;;;;8.00;3.53;;;;;;;;;;5057776;28;20419;-59
2023/10/21 00:06:38;;;;;;;6.33;3.73;;;;;;;;;;5063766;28;20409;-58
2023/10/21 00:09:03;;;;;;;4.85;3.13;;;;;;;;;;5045467;28;20918;-59
2023/10/21 00:11:29;;;;;;;7.60;4.27;;;;;;;;;;5058587;28;20427;-58
2023/10/21 00:13:54;;;;;;;6.83;3.40;;;;;;;;;;5062358;28;20490;-58
2023/10/21 00:16:19;;;;;;;6.43;3.60;;;;;;;;;;5061656;28;20380;-58
2023/10/21 00:18:45;;;;;;;7.77;3.53;;;;;;;;;;5060125;28;20426;-58
2023/10/21 00:21:10;;;;;;;7.55;3.25;;;;;;;;;;5060408;28;20507;-58
2023/10/21 00:23:36;;;;;;;7.03;3.93;;;;;;;;;;5063701;28;20745;-58
2023/10/21 00:26:02;;;;;;;8.17;4.20;;;;;;;;;;5061441;28;20445;-59
2023/10/21 00:28:27;;;;;;;7.13;3.30;;;;;;;;;;5059227;28;20467;-58
2023/10/21 00:30:52;;;;;;;6.80;4.07;;;;;;;;;;5057084;28;20395;-58
2023/10/21 00:33:17;;;;;;;7.70;3.70;;;;;;;;;;5061993;28;20763;-58
2023/10/21 00:35:44;;;;;;;6.90;3.57;;;;;;;;;;5057668;28;20411;-59
2023/10/21 00:38:09;;;;;;;6.65;3.50;;;;;;;;;;5043954;28;20399;-58
2023/10/21 00:40:34;;;;;;;6.50;3.30;;;;;;;;;;5062051;28;20407;-58
2023/10/21 00:42:59;;;;;;;7.50;3.38;;;;;;;;;;5060314;28;20410;-58
2023/10/21 00:45:25;;;;;;;7.63;4.27;;;;;;;;;;5058752;28;20860;-58
2023/10/21 00:47:50;;;;;;;7.70;3.60;;;;;;;;;;5062446;28;20399;-58
2023/10/21 00:50:15;;;;;;;5.93;3.73;;;;;;;;;;5043747;28;20403;-58
2023/10/21 00:52:47;;;;;;;8.17;3.40;;;;;;;;;;5059010;28;20411;-58
2023/10/21 00:55:12;;;;;;;6.20;3.57;;;;;;;;;;5061226;28;20410;-58
2023/10/21 00:57:38;;;;;;;7.68;3.85;;;;;;;;;;5045171;28;20474;-58
2023/10/21 01:00:10;;;;;;;7.43;3.40;;;;;;;;;;5057120;28;20433;-59
2023/10/21 01:02:36;;;;;;;7.45;3.72;;;;;;;;;;5061421;28;20409;-58
2023/10/21 01:05:01;;;;;;;6.30;3.42;;;;;;;;;;5062286;28;20529;-59
2023/10/21 01:07:27;;;;;;;7.50;4.10;;;;;;;;;;5060088;28;20432;-58
2023/10/21 01:09:53;;;;;;;7.27;3.87;;;;;;;;;;5059967;28;20457;-58
2023/10/21 01:12:18;;;;;;;7.03;4.05;;;;;;;;;;5062388;28;20520;-58
2023/10/21 01:14:44;;;;;;;6.43;3.10;;;;;;;;;;5061389;28;20479;-58
2023/10/21 01:17:09;;;;;;;7.85;3.83;;;;;;;;;;5057097;28;20973;-59
2023/10/21 01:19:34;;;;;;;7.03;4.70;;;;;;;;;;5062957;28;20434;-58
2023/10/21 01:21:59;;;;;;;8.17;4.10;;;;;;;;;;5062236;28;20526;-58
2023/10/21 01:24:25;;;;;;;8.43;4.47;;;;;;;;;;5057942;28;20397;-58
2023/10/21 01:26:50;;;;;;;8.50;4.37;;;;;;;;;;5061774;28;20503;-58
2023/10/21 01:29:15;;;;;;;7.87;4.00;;;;;;;;;;5061420;28;20758;-59
2023/10/21 01:31:41;;;;;;;7.30;3.93;;;;;;;;;;5059390;28;20406;-58
2023/10/21 01:34:07;;;;;;;8.00;3.63;;;;;;;;;;5059524;28;20492;-58
2023/10/21 01:36:32;;;;;;;8.50;3.60;;;;;;;;;;5061312;28;20408;-58
2023/10/21 01:38:57;;;;;;;11.07;2.78;;;;;;;;;;5055346;28;20393;-58
2023/10/21 01:41:23;;;;;;;6.93;3.20;;;;;;;;;;5056235;28;20409;-58
2023/10/21 01:43:48;;;;;;;7.40;3.30;;;;;;;;;;5062052;28;20421;-58
2023/10/21 01:46:13;;;;;;;8.60;4.30;;;;;;;;;;5063274;28;20399;-59
2023/10/21 01:48:38;;;;;;;6.97;3.83;;;;;;;;;;5061248;28;20918;-58
2023/10/21 01:51:04;;;;;;;9.60;4.00;;;;;;;;;;5064529;28;20388;-59
2023/10/21 01:53:31;;;;;;;8.50;4.20;;;;;;;;;;5066354;28;20384;-58
2023/10/21 01:56:00;;;;;;;8.48;3.78;;;;;;;;;;5062349;28;20457;-58
2023/10/21 01:58:26;;;;;;;7.43;3.92;;;;;;;;;;5062740;28;20434;-58
2023/10/21 02:00:52;;;;;;;10.90;4.00;;;;;;;;;;5065958;28;20407;-58
2023/10/21 02:03:17;;;;;;;8.57;3.42;;;;;;;;;;5063956;28;20399;-58
2023/10/21 02:05:42;;;;;;;8.70;3.97;;;;;;;;;;5061279;28;20906;-58
2023/10/21 02:08:08;;;;;;;5.73;3.50;;;;;;;;;;5065734;28;20427;-58
2023/10/21 02:10:35;;;;;;;7.33;4.30;;;;;;;;;;5065410;28;20402;-58
2023/10/21 02:13:00;;;;;;;7.57;4.60;;;;;;;;;;5058864;28;20759;-59
2023/10/21 02:15:25;;;;;;;8.67;3.90;;;;;;;;;;5065771;28;20402;-58
2023/10/21 02:17:51;;;;;;;7.73;4.20;;;;;;;;;;5061008;28;20398;-58
2023/10/21 02:20:16;;;;;;;8.83;4.40;;;;;;;;;;5061439;28;20400;-58
2023/10/21 02:22:41;;;;;;;8.70;5.32;;;;;;;;;;5063985;28;20966;-58
2023/10/21 02:25:07;;;;;;;8.00;4.47;;;;;;;;;;5064431;28;20474;-58
2023/10/21 02:27:33;;;;;;;6.33;3.73;;;;;;;;;;5063400;28;20911;-58
2023/10/21 02:29:58;;;;;;;8.65;4.10;;;;;;;;;;5061812;28;20505;-58
2023/10/21 02:32:23;;;;;;;8.07;4.43;;;;;;;;;;5064213;28;20401;-59
2023/10/21 02:34:49;;;;;;;6.30;4.10;;;;;;;;;;5064676;28;20895;-58
2023/10/21 02:37:14;;;;;;;8.53;4.20;;;;;;;;;;5041943;28;20404;-58
2023/10/21 02:39:39;;;;;;;8.57;5.20;;;;;;;;;;5059501;28;20483;-58
2023/10/21 02:42:04;;;;;;;9.07;4.37;;;;;;;;;;5064448;28;20755;-58
2023/10/21 02:44:30;;;;;;;8.02;4.70;;;;;;;;;;5060394;28;20475;-58
2023/10/21 02:46:55;;;;;;;8.27;4.47;;;;;;;;;;5063210;28;20483;-58
2023/10/21 02:49:21;;;;;;;8.20;5.00;;;;;;;;;;5064629;28;20384;-58
2023/10/21 02:51:46;;;;;;;7.40;4.93;;;;;;;;;;5061501;28;20399;-58
2023/10/21 02:54:12;;;;;;;9.00;5.15;;;;;;;;;;5043606;28;20432;-59
2023/10/21 02:56:39;;;;;;;7.67;5.10;;;;;;;;;;5064961;28;20399;-58
2023/10/21 02:59:04;;;;;;;8.80;5.03;;;;;;;;;;5062290;28;20419;-59
2023/10/21 03:01:29;;;;;;;7.33;4.83;;;;;;;;;;5059624;28;20400;-58
2023/10/21 03:03:55;;;;;;;10.60;4.97;;;;;;;;;;5064886;28;20910;-58
2023/10/21 03:06:21;;;;;;;10.93;6.97;;;;;;;;;;5064151;28;20459;-58
2023/10/21 03:08:47;;;;;;;7.88;5.10;;;;;;;;;;5059367;28;20498;-58
2023/10/21 03:11:12;;;;;;;9.43;4.90;;;;;;;;;;5053881;28;20505;-58
2023/10/21 03:13:38;;;;;;;7.10;4.40;;;;;;;;;;5030378;28;20431;-58
2023/10/21 03:16:10;;;;;;;9.40;5.32;;;;;;;;;;5032525;28;20891;-59
2023/10/21 03:18:36;;;;;;;10.50;5.10;;;;;;;;;;5035759;28;20474;-58
2023/10/21 03:21:01;;;;;;;7.80;4.80;;;;;;;;;;5034531;28;21017;-59
2023/10/21 03:23:26;;;;;;;10.00;6.47;;;;;;;;;;5029587;28;20417;-58
2023/10/21 03:25:54;;;;;;;10.37;5.77;;;;;;;;;;5025205;28;20424;-58
2023/10/21 03:28:20;;;;;;;9.40;5.90;;;;;;;;;;5019773;28;20422;-58
2023/10/21 03:30:46;;;;;;;12.07;6.78;;;;;;;;;;5022653;28;20407;-58
2023/10/21 03:33:12;;;;;;;8.50;5.95;;;;;;;;;;5032695;28;20395;-58
2023/10/21 03:35:37;;;;;;;9.97;6.57;;;;;;;;;;5029086;28;20438;-58
2023/10/21 03:38:02;;;;;;;9.97;6.10;;;;;;;;;;5027495;28;20434;-58
2023/10/21 03:40:28;;;;;;;10.23;7.22;;;;;;;;;;5032198;28;20402;-58
2023/10/21 03:42:53;;;;;;;11.30;7.43;;;;;;;;;;5028671;28;20457;-58
2023/10/21 03:45:18;;;;;;;10.60;7.00;;;;;;;;;;5028236;28;20907;-58
2023/10/21 03:47:44;;;;;;;10.10;7.03;;;;;;;;;;5023260;28;20442;-59
2023/10/21 03:50:09;;;;;;;10.50;6.73;;;;;;;;;;5021549;28;20977;-58
2023/10/21 03:52:35;;;;;;;9.20;6.28;;;;;;;;;;5020954;28;20404;-58
2023/10/21 03:55:01;;;;;;;11.80;6.45;;;;;;;;;;5027411;28;20402;-59
2023/10/21 03:57:26;;;;;;;10.30;6.53;;;;;;;;;;5032317;28;20406;-58
2023/10/21 03:59:51;;;;;;;13.30;8.40;;;;;;;;;;5027027;28;20926;-58
2023/10/21 04:02:17;;;;;;;10.87;6.30;;;;;;;;;;5013112;28;20458;-58
2023/10/21 04:04:42;;;;;;;10.23;6.73;;;;;;;;;;5006877;28;20406;-58
2023/10/21 04:07:07;;;;;;;9.03;6.37;;;;;;;;;;5010901;28;20763;-58
2023/10/21 04:09:32;;;;;;;9.38;6.25;;;;;;;;;;4999863;28;20905;-58
2023/10/21 04:11:59;;;;;;;10.82;6.85;;;;;;;;;;4997809;28;20462;-58
2023/10/21 04:14:24;;;;;;;10.82;7.38;;;;;;;;;;4997822;28;21308;-58
2023/10/21 04:16:49;;;;;;;9.20;6.30;;;;;;;;;;5001928;28;20445;-58
2023/10/21 04:19:16;;;;;;;7.80;6.30;;;;;;;;;;5006372;28;20415;-58
2023/10/21 04:21:41;;;;;;;10.18;6.60;;;;;;;;;;5008899;28;20482;-58
2023/10/21 04:24:07;;;;;;;10.97;7.37;;;;;;;;;;5003639;28;20539;-58
2023/10/21 04:26:32;;;;;;;10.10;6.65;;;;;;;;;;5024448;28;20411;-58
2023/10/21 04:28:57;;;;;;;13.73;8.77;;;;;;;;;;5024228;28;20894;-58
2023/10/21 04:31:22;;;;;;;9.60;6.33;;;;;;;;;;5026355;28;20431;-58
2023/10/21 04:33:49;;;;;;;8.87;6.90;;;;;;;;;;5027396;28;20411;-58
2023/10/21 04:36:18;;;;;;;10.13;6.53;;;;;;;;;;5025286;28;20403;-58
2023/10/21 04:38:43;;;;;;;12.88;8.20;;;;;;;;;;5025278;28;20419;-58
2023/10/21 04:41:10;;;;;;;10.05;6.80;;;;;;;;;;5025374;28;20457;-58
2023/10/21 04:43:35;;;;;;;10.73;7.40;;;;;;;;;;5026473;28;20395;-58
2023/10/21 04:46:01;;;;;;;8.87;6.80;;;;;;;;;;5024378;28;20430;-60
2023/10/21 04:48:26;;;;;;;10.80;7.57;;;;;;;;;;5027300;28;20421;-58
2023/10/21 04:50:51;;;;;;;14.13;9.10;;;;;;;;;;5027402;28;20410;-58
2023/10/21 04:53:16;;;;;;;9.63;6.47;;;;;;;;;;5022988;28;20442;-58
2023/10/21 04:55:42;;;;;;;10.35;6.63;;;;;;;;;;5027061;28;20403;-58
2023/10/21 04:58:07;;;;;;;12.40;8.00;;;;;;;;;;5026405;28;20815;-59
2023/10/21 05:00:33;;;;;;;10.37;6.67;;;;;;;;;;5030680;28;20405;-58
2023/10/21 05:02:58;;;;;;;11.07;7.07;;;;;;;;;;5049799;28;20390;-58
2023/10/21 05:05:24;;;;;;;11.40;6.73;;;;;;;;;;5046476;28;20405;-58
2023/10/21 05:07:49;;;;;;;10.85;7.20;;;;;;;;;;5046088;28;20398;-58
2023/10/21 05:10:14;;;;;;;8.87;6.60;;;;;;;;;;5024560;28;20419;-58
2023/10/21 05:12:40;;;;;;;10.53;7.37;;;;;;;;;;5024917;28;20412;-58
2023/10/21 05:15:05;;;;;;;10.63;7.20;;;;;;;;;;5020553;28;21954;-58
2023/10/21 05:17:30;;;;;;;8.40;6.45;;;;;;;;;;5018885;28;21133;-58
2023/10/21 05:19:56;;;;;;;10.40;6.37;;;;;;;;;;5016448;28;20623;-58
2023/10/21 05:22:22;;;;;;;10.65;6.95;;;;;;;;;;5020219;28;20809;-58
2023/10/21 05:24:47;;;;;;;9.57;5.73;;;;;;;;;;5029093;28;20419;-58
2023/10/21 05:27:12;;;;;;;8.87;4.87;;;;;;;;;;5029409;28;20417;-58
2023/10/21 05:29:38;;;;;;;11.57;6.10;;;;;;;;;;5027209;28;20411;-58
2023/10/21 05:32:03;;;;;;;7.47;4.57;;;;;;;;;;5027691;28;21018;-59
2023/10/21 05:34:28;;;;;;;8.32;5.20;;;;;;;;;;5028749;28;20488;-58
2023/10/21 05:36:54;;;;;;;9.23;4.60;;;;;;;;;;5010959;28;20401;-58
2023/10/21 05:39:19;;;;;;;9.63;5.60;;;;;;;;;;5020808;28;20422;-59
2023/10/21 05:41:44;;;;;;;9.00;5.60;;;;;;;;;;5020898;28;20401;-58
2023/10/21 05:44:10;;;;;;;9.60;5.23;;;;;;;;;;5019805;28;20412;-59
2023/10/21 05:46:35;;;;;;;8.73;5.30;;;;;;;;;;5028555;28;20970;-58
2023/10/21 05:49:02;;;;;;;9.20;5.10;;;;;;;;;;5026966;28;20480;-60
2023/10/21 05:51:27;;;;;;;9.23;5.40;;;;;;;;;;5028904;28;20410;-58
2023/10/21 05:53:52;;;;;;;12.40;6.60;;;;;;;;;;5027619;28;20407;-58
2023/10/21 05:56:18;;;;;;;8.00;4.40;;;;;;;;;;5027114;28;20422;-58
2023/10/21 05:58:43;;;;;;;8.38;5.70;;;;;;;;;;5029393;28;21815;-58
2023/10/21 06:01:09;;;;;;;10.97;6.17;;;;;;;;;;5011540;28;20420;-59
2023/10/21 06:03:35;;;;;;;8.93;5.00;;;;;;;;;;4998812;28;20417;-58
2023/10/21 06:06:00;;;;;;;9.02;4.97;;;;;;;;;;4987802;28;20481;-59
2023/10/21 06:08:25;;;;;;;8.00;4.67;;;;;;;;;;5003934;28;20406;-58
2023/10/21 06:10:51;;;;;;;7.07;4.00;;;;;;;;;;5006849;28;20400;-58
2023/10/21 06:13:17;;;;;;;8.05;4.88;;;;;;;;;;5026103;28;20812;-58
2023/10/21 06:15:42;;;;;;;8.13;4.90;;;;;;;;;;5020789;28;20908;-58
2023/10/21 06:18:07;;;;;;;8.85;4.75;;;;;;;;;;5024757;28;20494;-58
2023/10/21 06:20:33;;;;;;;6.33;4.37;;;;;;;;;;5021455;28;20889;-58
2023/10/21 06:22:58;;;;;;;7.93;4.50;;;;;;;;;;5022998;28;20434;-58
2023/10/21 06:25:24;;;;;;;9.03;4.43;;;;;;;;;;5015959;28;20777;-58
2023/10/21 06:27:49;;;;;;;7.47;4.57;;;;;;;;;;5012396;28;20405;-58
2023/10/21 06:30:14;;;;;;;8.17;4.70;;;;;;;;;;5013305;28;20887;-58
2023/10/21 06:32:40;;;;;;;10.27;6.00;;;;;;;;;;5022890;28;20433;-57
2023/10/21 06:35:05;;;;;;;7.83;4.80;;;;;;;;;;5017797;28;20397;-58
2023/10/21 06:37:30;;;;;;;7.03;5.00;;;;;;;;;;5012319;28;20381;-58
2023/10/21 06:39:56;;;;;;;9.82;5.72;;;;;;;;;;5028098;28;20918;-58
2023/10/21 06:42:21;;;;;;;8.47;5.53;;;;;;;;;;5031585;28;20399;-58
2023/10/21 06:44:46;;;;;;;7.03;4.97;;;;;;;;;;5030999;28;20407;-58
2023/10/21 06:47:12;;;;;;;11.77;6.20;;;;;;;;;;5031650;28;20414;-59
2023/10/21 06:49:37;;;;;;;8.87;5.07;;;;;;;;;;5031820;28;20889;-58
2023/10/21 06:52:02;;;;;;;9.47;4.80;;;;;;;;;;5030768;28;20485;-59
2023/10/21 06:54:28;;;;;;;7.93;4.90;;;;;;;;;;5031523;28;20468;-58
2023/10/21 06:56:53;;;;;;;8.00;4.93;;;;;;;;;;5031630;28;20430;-58
2023/10/21 06:59:18;;;;;;;7.43;4.07;;;;;;;;;;5030592;28;20403;-59
2023/10/21 07:01:44;;;;;;;10.00;5.10;;;;;;;;;;5047435;28;20425;-58
2023/10/21 07:04:10;;;;;;;10.05;6.57;;;;;;;;;;5051178;28;20756;-58
2023/10/21 07:06:36;;;;;;;9.57;6.50;;;;;;;;;;5050684;28;20397;-58
2023/10/21 07:09:01;;;;;;;7.60;5.25;;;;;;;;;;5051028;28;20413;-59
2023/10/21 07:11:26;;;;;;;8.17;5.10;;;;;;;;;;5051053;28;20394;-58
2023/10/21 07:13:52;;;;;;;6.20;4.50;;;;;;;;;;5032478;28;20741;-58
2023/10/21 07:16:17;;;;;;;9.90;5.50;;;;;;;;;;5050797;28;20481;-59
2023/10/21 07:18:42;;;;;;;6.10;4.47;;;;;;;;;;5051192;28;20408;-58
2023/10/21 07:21:08;;;;;;;7.38;4.30;;;;;;;;;;5049660;28;20410;-59
2023/10/21 07:23:33;;;;;;;9.47;5.10;;;;;;;;;;5051012;28;20787;-58
2023/10/21 07:25:59;;;;;;;9.33;4.80;;;;;;;;;;5050650;28;20411;-58
2023/10/21 07:28:24;;;;;;;7.33;4.67;;;;;;;;;;5049781;28;20401;-58
2023/10/21 07:30:49;;;;;;;7.05;4.47;;;;;;;;;;5051075;28;20390;-58
2023/10/21 07:33:15;;;;;;;9.07;4.83;;;;;;;;;;5050679;28;20406;-59
2023/10/21 07:35:40;;;;;;;8.77;4.47;;;;;;;;;;5050210;28;20451;-58
2023/10/21 07:38:06;;;;;;;7.43;4.00;;;;;;;;;;5050334;28;20401;-59
2023/10/21 07:40:31;;;;;;;6.93;3.75;;;;;;;;;;5050852;28;20492;-58
2023/10/21 07:42:57;;;;;;;6.93;4.00;;;;;;;;;;5050120;28;20397;-58
2023/10/21 07:45:22;;;;;;;7.77;2.80;;;;;;;;;;5049053;28;20381;-58
2023/10/21 07:47:47;;;;;;;8.87;3.07;;;;;;;;;;5051410;28;20421;-58
2023/10/21 07:50:13;;;;;;;9.38;2.90;;;;;;;;;;5044798;28;20439;-58
2023/10/21 07:52:38;;;;;;;6.43;2.90;;;;;;;;;;5048563;28;20591;-58
2023/10/21 07:55:04;;;;;;;7.50;2.70;;;;;;;;;;5046066;28;20416;-59
2023/10/21 07:57:30;;;;;;;8.37;2.60;;;;;;;;;;5045510;28;20398;-59
2023/10/21 07:59:56;;;;;;;9.68;2.95;;;;;;;;;;5047733;28;20416;-59
2023/10/21 08:02:21;;;;;;;9.20;3.00;;;;;;;;;;5046402;28;20413;-59
2023/10/21 08:04:47;;;;;;;7.32;2.60;;;;;;;;;;5045627;28;20938;-59
2023/10/21 08:07:12;;;;;;;5.83;2.87;;;;;;;;;;5046741;28;20417;-59
2023/10/21 08:09:38;;;;;;;5.63;2.20;;;;;;;;;;5047150;28;20412;-58
2023/10/21 08:12:04;;;;;;;5.90;2.35;;;;;;;;;;5045410;28;20432;-59
2023/10/21 08:14:31;;;;;;;5.72;2.13;;;;;;;;;;5046156;28;20904;-58
2023/10/21 08:16:57;;;;;;;5.25;2.17;;;;;;;;;;5046268;28;20409;-58
2023/10/21 08:19:24;;;;;;;5.53;2.47;;;;;;;;;;5046618;28;20397;-59
2023/10/21 08:21:49;;;;;;;4.68;2.22;;;;;;;;;;5045289;28;20408;-58
2023/10/21 08:24:15;;;;;;;5.20;1.90;;;;;;;;;;5045759;28;20397;-59
2023/10/21 08:26:40;;;;;;;2.97;1.55;;;;;;;;;;5046668;28;20757;-58
2023/10/21 08:29:06;;;;;;;2.03;1.10;;;;;;;;;;5043769;28;20413;-59
2023/10/21 08:31:31;;;;;;;2.93;1.00;;;;;;;;;;5046818;28;20535;-59
2023/10/21 08:33:56;;;;;;;1.93;0.80;;;;;;;;;;5047408;28;20448;-58
2023/10/21 08:36:22;;;;;;;2.50;0.70;;;;;;;;;;5045182;28;20501;-58
2023/10/21 08:38:48;;;;;;;1.65;0.57;;;;;;;;;;5029632;28;20480;-58
2023/10/21 08:41:13;;;;;;;1.15;0.50;;;;;;;;;;5046553;28;20416;-58
2023/10/21 08:43:41;;;;;;;1.87;0.70;;;;;;;;;;5046033;28;20416;-58
2023/10/21 08:46:06;;;;;;;4.13;1.20;;;;;;;;;;5032969;28;20520;-60
2023/10/21 08:48:32;;;;;;;2.37;0.53;;;;;;;;;;5030539;28;20488;-58
2023/10/21 08:50:57;;;;;;;1.45;0.50;;;;;;;;;;5030790;28;20443;-58
2023/10/21 08:53:22;;;;;;;2.63;0.60;;;;;;;;;;5027792;28;20397;-59
2023/10/21 08:55:48;;;;;;;2.57;0.60;;;;;;;;;;5043668;28;20409;-59
2023/10/21 08:58:13;;;;;;;2.90;0.80;;;;;;;;;;5050636;28;20412;-58
2023/10/21 09:00:41;;;;;;;1.90;0.50;;;;;;;;;;5041962;28;20417;-58
2023/10/21 09:03:08;;;;;;;2.50;0.60;;;;;;;;;;5050230;28;20428;-58
2023/10/21 09:05:34;;;;;;;1.43;0.50;;;;;;;;;;5050330;28;20929;-58
2023/10/21 09:07:59;;;;;;;3.10;0.50;;;;;;;;;;5050167;28;20413;-58
2023/10/21 09:10:25;;;;;;;1.80;0.60;;;;;;;;;;5049221;28;20389;-58
2023/10/21 09:12:50;;;;;;;1.50;0.47;;;;;;;;;;5049839;28;20390;-58
2023/10/21 09:15:15;;;;;;;1.57;0.40;;;;;;;;;;5050383;28;20409;-59
2023/10/21 09:17:45;;;;;;;1.70;0.50;;;;;;;;;;5048617;28;20431;-58
2023/10/21 09:20:16;;;;;;;1.65;0.40;;;;;;;;;;5032764;28;20397;-59
2023/10/21 09:22:42;;;;;;;2.47;0.40;;;;;;;;;;5050536;28;20772;-58
2023/10/21 09:25:20;;;;;;;1.80;0.50;;;;;;;;;;5048538;28;20452;-59
2023/10/21 09:27:46;;;;;;;1.10;0.40;;;;;;;;;;5048526;28;20494;-58
2023/10/21 09:30:13;;;;;;;0.82;0.40;;;;;;;;;;5049823;28;20410;-58
2023/10/21 09:32:38;;;;;;;1.15;0.40;;;;;;;;;;5050307;28;20401;-58
2023/10/21 09:35:13;;;;;;;2.03;0.30;;;;;;;;;;5047458;28;20405;-59
2023/10/21 09:37:38;;;;;;;2.05;0.40;;;;;;;;;;5050597;28;20495;-58
2023/10/21 09:40:06;;;;;;;1.13;0.37;;;;;;;;;;5050113;28;20647;-59
2023/10/21 09:42:32;;;;;;;1.67;0.40;;;;;;;;;;5032298;28;20766;-58
2023/10/21 09:44:58;;;;;;;2.38;0.40;;;;;;;;;;5037971;28;20428;-58
2023/10/21 09:47:23;;;;;;;2.10;0.40;;;;;;;;;;5050060;28;20394;-58
2023/10/21 09:49:48;;;;;;;1.70;0.40;;;;;;;;;;5033128;28;20911;-58
2023/10/21 09:52:15;;;;;;;2.07;0.50;;;;;;;;;;5048194;28;20710;-58
2023/10/21 09:54:42;;;;;;;1.30;0.30;;;;;;;;;;5049718;28;20552;-58
2023/10/21 09:57:10;;;;;;;2.42;0.40;;;;;;;;;;5049740;28;20412;-58
2023/10/21 09:59:36;;;;;;;1.98;0.30;;;;;;;;;;5047589;28;20417;-58
2023/10/21 10:02:01;;;;;;;2.80;0.50;;;;;;;;;;5048426;28;20974;-59
2023/10/21 10:04:26;;;;;;;1.73;0.40;;;;;;;;;;5053429;28;20389;-58
2023/10/21 10:06:56;;;;;;;3.00;0.50;;;;;;;;;;5045631;28;20421;-58
2023/10/21 10:09:22;;;;;;;3.17;0.65;;;;;;;;;;5052144;28;20450;-58
2023/10/21 10:11:47;;;;;;;2.38;0.45;;;;;;;;;;5047944;28;20964;-58
2023/10/21 10:14:14;;;;;;;1.83;0.50;;;;;;;;;;5046329;28;20420;-58
2023/10/21 10:16:40;;;;;;;2.50;0.60;;;;;;;;;;5048733;28;20503;-58
2023/10/21 10:19:05;;;;;;;2.55;0.60;;;;;;;;;;5047471;28;20451;-58
2023/10/21 10:21:32;;;;;;;2.40;0.50;;;;;;;;;;5032826;28;20405;-58
2023/10/21 10:23:58;;;;;;;2.60;0.50;;;;;;;;;;5032503;28;20401;-58
2023/10/21 10:26:42;;;;;;;1.92;0.45;;;;;;;;;;5046728;28;20409;-57
2023/10/21 10:29:17;;;;;;;2.65;0.52;;;;;;;;;;5047702;28;20413;-59
2023/10/21 10:31:44;;;;;;;2.20;0.60;;;;;;;;;;5048742;28;20412;-58
2023/10/21 10:34:10;;;;;;;2.10;0.55;;;;;;;;;;5048282;28;20402;-58
2023/10/21 10:36:35;;;;;;;2.72;0.43;;;;;;;;;;5047203;28;20408;-58
2023/10/21 10:39:01;;;;;;;3.67;0.60;;;;;;;;;;5048588;28;20800;-59
2023/10/21 10:41:27;;;;;;;2.30;0.60;;;;;;;;;;5049213;28;20764;-58
2023/10/21 10:43:55;;;;;;;3.03;0.60;;;;;;;;;;5046003;28;20896;-58
2023/10/21 10:46:22;;;;;;;2.00;0.60;;;;;;;;;;5048207;28;20435;-58
2023/10/21 10:48:48;;;;;;;2.40;0.60;;;;;;;;;;5049188;28;20491;-58
2023/10/21 10:51:15;;;;;;;3.40;0.60;;;;;;;;;;5046959;28;20876;-58
2023/10/21 10:53:43;;;;;;;2.92;0.50;;;;;;;;;;5047790;28;20437;-58
2023/10/21 10:56:14;;;;;;;2.88;0.60;;;;;;;;;;5048228;28;20412;-58
2023/10/21 10:58:40;;;;;;;3.00;0.47;;;;;;;;;;5032680;28;20804;-58
2023/10/21 11:01:07;;;;;;;4.07;0.80;;;;;;;;;;5045867;28;20459;-58
2023/10/21 11:03:33;;;;;;;2.83;0.50;;;;;;;;;;5049052;28;20501;-58
2023/10/21 11:05:59;;;;;;;3.97;0.60;;;;;;;;;;5048247;28;20490;-58
2023/10/21 11:08:25;;;;;;;2.42;0.60;;;;;;;;;;5046376;28;20752;-58
2023/10/21 11:10:53;;;;;;;2.53;0.50;;;;;;;;;;5048427;28;20398;-58
2023/10/21 11:13:19;;;;;;;2.90;0.60;;;;;;;;;;5047379;28;20440;-58
2023/10/21 11:15:44;;;;;;;3.10;0.60;;;;;;;;;;5047110;28;20433;-58
2023/10/21 11:18:10;;;;;;;2.83;0.50;;;;;;;;;;5046365;28;20393;-58
2023/10/21 11:20:35;;;;;;;2.85;0.55;;;;;;;;;;5047316;28;20752;-58
2023/10/21 11:23:10;;;;;;;3.70;0.60;;;;;;;;;;5031385;28;20397;-58
2023/10/21 11:25:35;;;;;;;3.90;0.50;;;;;;;;;;5051646;28;20405;-58
2023/10/21 11:28:01;;;;;;;3.17;0.60;;;;;;;;;;5048768;28;20564;-59
2023/10/21 11:30:26;;;;;;;2.58;0.55;;;;;;;;;;5051157;28;20400;-58
2023/10/21 11:32:54;;;;;;;3.73;0.77;;;;;;;;;;5047451;28;20400;-58
2023/10/21 11:35:20;;;;;;;3.72;0.88;;;;;;;;;;5047643;28;20416;-58
2023/10/21 11:37:47;;;;;;;3.20;0.70;;;;;;;;;;5050854;28;20405;-58
2023/10/21 11:40:15;;;;;;;4.75;0.80;;;;;;;;;;5030485;28;20426;-58
2023/10/21 11:42:42;;;;;;;5.32;0.80;;;;;;;;;;5048525;28;20413;-58
2023/10/21 11:45:09;;;;;;;3.58;0.80;;;;;;;;;;5049925;28;20760;-58
2023/10/21 11:47:35;;;;;;;4.28;1.00;;;;;;;;;;5031992;28;20485;-58
2023/10/21 11:50:01;;;;;;;3.97;0.80;;;;;;;;;;5050160;28;20907;-58
2023/10/21 11:52:26;;;;;;;2.53;0.68;;;;;;;;;;5050663;28;20390;-58
2023/10/21 11:55:20;;;;;;;4.20;0.97;;;;;;;;;;5049914;28;20409;-58
2023/10/21 12:04:01;;;;;;;4.97;0.80;;;;;;;;;;5048875;28;20398;-58
2023/10/21 12:16:55;;;;;;;3.25;0.68;;;;;;;;;;5049153;28;20390;-58
2023/10/21 12:25:11;;;;;;;3.47;0.70;;;;;;;;;;5048778;28;20404;-58
2023/10/21 12:28:13;;;;;;;3.45;0.73;;;;;;;;;;5049105;28;20920;-58
2023/10/21 12:33:20;;;;;;;4.80;1.00;;;;;;;;;;5049859;28;20455;-57
2023/10/21 12:36:10;;;;;;;4.63;1.02;;;;;;;;;;5049559;28;20401;-58
2023/10/21 12:38:51;;;;;;;4.77;0.93;;;;;;;;;;5048974;28;20464;-57
2023/10/21 12:41:25;;;;;;;5.50;1.00;;;;;;;;;;5049148;28;20404;-58
2023/10/21 12:43:50;;;;;;;3.93;0.90;;;;;;;;;;5048741;28;20414;-58
2023/10/21 12:46:17;;;;;;;6.47;1.10;;;;;;;;;;5048774;28;20440;-58
2023/10/21 12:48:43;;;;;;;6.63;1.20;;;;;;;;;;5049640;28;20373;-58
2023/10/21 12:51:09;;;;;;;5.43;1.10;;;;;;;;;;5048806;28;20412;-58
2023/10/21 12:53:35;;;;;;;4.97;0.93;;;;;;;;;;5047279;28;20417;-58
2023/10/21 12:56:00;;;;;;;4.33;0.90;;;;;;;;;;5046945;28;20432;-59
2023/10/21 12:58:25;;;;;;;5.85;1.13;;;;;;;;;;5043557;28;20907;-57
2023/10/21 13:00:50;;;;;;;6.85;1.17;;;;;;;;;;5045802;28;20488;-58
2023/10/21 13:03:17;;;;;;;4.88;1.10;;;;;;;;;;5061469;28;20457;-58
2023/10/21 13:05:48;;;;;;;5.93;1.10;;;;;;;;;;5058106;28;20457;-57
2023/10/21 13:08:13;;;;;;;5.33;0.90;;;;;;;;;;5061606;28;20399;-58
2023/10/21 13:10:38;;;;;;;5.05;0.90;;;;;;;;;;5052053;28;20407;-58
2023/10/21 13:13:04;;;;;;;5.27;1.00;;;;;;;;;;5041400;28;20450;-58
2023/10/21 13:15:29;;;;;;;4.27;0.90;;;;;;;;;;5059659;28;20407;-57
2023/10/21 13:17:55;;;;;;;4.90;1.10;;;;;;;;;;5055825;28;20461;-60
2023/10/21 13:20:20;;;;;;;4.90;1.00;;;;;;;;;;5055172;28;21114;-57
2023/10/21 13:22:45;;;;;;;5.07;0.93;;;;;;;;;;5056716;28;20848;-58
2023/10/21 13:25:13;;;;;;;5.73;1.30;;;;;;;;;;5062208;28;20417;-57
2023/10/21 13:27:38;;;;;;;5.55;1.40;;;;;;;;;;5061589;28;20894;-57
2023/10/21 13:30:10;;;;;;;5.60;1.13;;;;;;;;;;5056563;28;20774;-58
2023/10/21 13:32:37;;;;;;;6.00;1.05;;;;;;;;;;5044262;28;20419;-58
2023/10/21 13:35:09;;;;;;;5.40;1.00;;;;;;;;;;5026024;28;20409;-57
2023/10/21 13:37:36;;;;;;;6.45;1.13;;;;;;;;;;5026838;28;20401;-58
2023/10/21 13:40:02;;;;;;;5.88;1.15;;;;;;;;;;5026585;28;20422;-58
2023/10/21 13:42:28;;;;;;;7.57;1.30;;;;;;;;;;5032226;28;20402;-57
2023/10/21 13:44:53;;;;;;;6.67;1.40;;;;;;;;;;5035895;28;20791;-58
2023/10/21 13:47:18;;;;;;;7.40;1.27;;;;;;;;;;5036372;28;20452;-58
2023/10/21 13:49:43;;;;;;;6.10;1.43;;;;;;;;;;5034240;28;20401;-58
2023/10/21 13:52:09;;;;;;;6.20;1.20;;;;;;;;;;5036154;28;20438;-58
2023/10/21 13:54:35;;;;;;;4.85;1.00;;;;;;;;;;5037479;28;20472;-58
2023/10/21 13:57:03;;;;;;;6.68;1.00;;;;;;;;;;5026473;28;20511;-58
2023/10/21 13:59:29;;;;;;;4.75;1.10;;;;;;;;;;5026773;28;20395;-58
2023/10/21 14:01:54;;;;;;;7.87;1.37;;;;;;;;;;5026909;28;20420;-58
2023/10/21 14:04:20;;;;;;;6.53;1.27;;;;;;;;;;5025006;28;21428;-58
2023/10/21 14:06:46;;;;;;;7.47;1.80;;;;;;;;;;5032612;28;20508;-58
2023/10/21 14:09:22;;;;;;;5.60;1.27;;;;;;;;;;5032255;28;20420;-58
2023/10/21 14:11:47;;;;;;;6.00;1.27;;;;;;;;;;5037057;28;20411;-57
2023/10/21 14:14:12;;;;;;;6.33;1.33;;;;;;;;;;5030433;28;20457;-57
2023/10/21 14:16:38;;;;;;;7.13;1.70;;;;;;;;;;5031679;28;20828;-57
2023/10/21 14:19:05;;;;;;;6.40;1.37;;;;;;;;;;5026319;28;20405;-57
2023/10/21 14:21:30;;;;;;;5.40;1.20;;;;;;;;;;5023507;28;20404;-57
2023/10/21 14:23:55;;;;;;;5.65;1.27;;;;;;;;;;5024002;28;20425;-57
2023/10/21 14:26:21;;;;;;;5.93;1.40;;;;;;;;;;5028122;28;20397;-58
2023/10/21 14:28:47;;;;;;;5.93;1.47;;;;;;;;;;5031232;28;20410;-57
2023/10/21 14:31:13;;;;;;;5.50;1.50;;;;;;;;;;5029379;28;20763;-57
2023/10/21 14:33:38;;;;;;;6.03;1.40;;;;;;;;;;5033285;28;20409;-58
2023/10/21 14:36:05;;;;;;;8.20;1.42;;;;;;;;;;5029348;28;20404;-58
2023/10/21 14:38:31;;;;;;;8.65;1.85;;;;;;;;;;5030035;28;20395;-58
2023/10/21 14:40:56;;;;;;;8.60;1.80;;;;;;;;;;5030779;28;20569;-58
2023/10/21 14:43:22;;;;;;;6.40;1.53;;;;;;;;;;5027990;28;20743;-58
2023/10/21 14:45:47;;;;;;;7.10;1.60;;;;;;;;;;5022565;28;21317;-58
2023/10/21 14:48:14;;;;;;;7.50;1.63;;;;;;;;;;5026683;28;20411;-57
2023/10/21 14:50:40;;;;;;;7.70;1.67;;;;;;;;;;5035070;28;20923;-58
2023/10/21 14:53:07;;;;;;;7.53;1.63;;;;;;;;;;5029400;28;20409;-57
2023/10/21 14:55:33;;;;;;;7.28;1.40;;;;;;;;;;5030081;28;20405;-57
2023/10/21 14:57:58;;;;;;;11.05;1.98;;;;;;;;;;5030637;28;20442;-58
2023/10/21 15:00:25;;;;;;;6.73;1.77;;;;;;;;;;5029195;28;20899;-57